createdAt,value
2022-10-11T00:00:42.098Z,102539.16
2022-10-11T00:05:32.674Z,102535.63
2022-10-11T00:10:27.808Z,102545.00
2022-10-11T00:15:19.762Z,102546.63
2022-10-11T00:20:09.861Z,102550.72
2022-10-11T00:24:59.299Z,102553.22
2022-10-11T00:29:53.337Z,102554.66
2022-10-11T00:34:42.813Z,102560.66
2022-10-11T00:39:32.513Z,102564.81
2022-10-11T00:44:23.306Z,102571.47
2022-10-11T00:49:20.268Z,102562.72
2022-10-11T00:54:10.724Z,102569.44
2022-10-11T00:59:01.648Z,102577.03
2022-10-11T01:03:51.113Z,102584.69
2022-10-11T01:08:43.377Z,102583.75
2022-10-11T01:13:37.928Z,102587.09
2022-10-11T01:18:30.983Z,102592.19
2022-10-11T01:23:35.404Z,102585.28
2022-10-11T01:28:33.910Z,102585.13
2022-10-11T01:33:30.148Z,102585.91
2022-10-11T01:38:22.292Z,102596.81
2022-10-11T01:43:13.211Z,102593.22
2022-10-11T01:48:08.043Z,102601.66
2022-10-11T01:53:03.280Z,102601.44
2022-10-11T01:58:04.075Z,102601.34
2022-10-11T02:02:59.567Z,102601.19
2022-10-11T02:07:55.226Z,102597.66
2022-10-11T02:12:50.491Z,102596.72
2022-10-11T02:17:43.346Z,102594.00
2022-10-11T02:22:34.750Z,102599.06
2022-10-11T02:27:25.866Z,102599.84
2022-10-11T02:32:19.448Z,102602.25
2022-10-11T02:37:12.236Z,102604.69
2022-10-11T02:42:06.133Z,102608.00
2022-10-11T02:46:56.327Z,102601.03
2022-10-11T02:51:48.339Z,102603.38
2022-10-11T02:56:37.749Z,102608.34
2022-10-11T03:01:27.161Z,102603.09
2022-10-11T03:06:16.636Z,102615.72
2022-10-11T03:11:08.833Z,102608.66
2022-10-11T03:16:03.381Z,102614.63
2022-10-11T03:20:53.200Z,102608.38
2022-10-11T03:25:42.638Z,102616.81
2022-10-11T03:30:34.944Z,102623.66
2022-10-11T03:35:24.419Z,102618.28
2022-10-11T03:40:16.071Z,102623.38
2022-10-11T03:45:10.057Z,102626.69
2022-10-11T03:50:02.099Z,102629.91
2022-10-11T03:54:53.684Z,102638.31
2022-10-11T03:59:43.063Z,102627.91
2022-10-11T04:04:32.455Z,102635.56
2022-10-11T04:09:28.068Z,102647.34
2022-10-11T04:14:17.524Z,102646.41
2022-10-11T04:19:06.993Z,102647.94
2022-10-11T04:23:57.071Z,102643.53
2022-10-11T04:28:49.528Z,102657.19
2022-10-11T04:33:40.535Z,102661.34
2022-10-11T04:38:29.964Z,102669.88
2022-10-11T04:43:21.825Z,102666.34
2022-10-11T04:48:14.151Z,102654.00
2022-10-11T04:53:06.174Z,102672.94
2022-10-11T04:57:55.796Z,102670.31
2022-10-11T05:02:45.234Z,102671.91
2022-10-11T05:07:37.696Z,102671.81
2022-10-11T05:12:28.136Z,102673.50
2022-10-11T05:17:19.649Z,102668.31
2022-10-11T05:22:09.077Z,102671.59
2022-10-11T05:27:03.477Z,102677.47
2022-10-11T05:31:53.220Z,102681.66
2022-10-11T05:36:42.687Z,102684.84
2022-10-11T05:41:32.199Z,102692.38
2022-10-11T05:46:25.357Z,102694.81
2022-10-11T05:51:15.149Z,102695.50
2022-10-11T05:56:05.169Z,102700.56
2022-10-11T06:00:56.979Z,102697.88
2022-10-11T06:05:52.131Z,102703.00
2022-10-11T06:10:44.989Z,102709.50
2022-10-11T06:15:35.127Z,102710.53
2022-10-11T06:20:24.898Z,102693.28
2022-10-11T06:25:17.380Z,102679.75
2022-10-11T06:30:10.652Z,102711.81
2022-10-11T06:35:01.602Z,102656.09
2022-10-11T06:39:52.257Z,102700.81
2022-10-11T06:44:44.668Z,102737.25
2022-10-11T06:49:34.565Z,102719.75
2022-10-11T06:54:26.074Z,102634.94
2022-10-11T06:59:16.040Z,102739.41
2022-10-11T07:04:10.969Z,102698.75
2022-10-11T07:09:04.316Z,102764.38
2022-10-11T07:13:54.784Z,102764.75
2022-10-11T07:18:44.191Z,102763.63
2022-10-11T07:23:37.352Z,102770.94
2022-10-11T07:28:30.628Z,102777.56
2022-10-11T07:33:20.656Z,102779.13
2022-10-11T07:38:12.533Z,102785.91
2022-10-11T07:43:04.834Z,102792.53
2022-10-11T07:47:57.854Z,102780.16
2022-10-11T07:52:49.338Z,102793.84
2022-10-11T07:57:39.785Z,102798.09
2022-10-11T08:02:34.012Z,102790.28
2022-10-11T08:07:23.470Z,102795.47
2022-10-11T08:12:13.091Z,102799.00
2022-10-11T08:17:02.630Z,102799.97
2022-10-11T08:21:54.955Z,102806.75
2022-10-11T08:26:44.652Z,102804.00
2022-10-11T08:31:37.155Z,102810.69
2022-10-11T08:36:26.685Z,102813.97
2022-10-11T08:41:27.343Z,102818.19
2022-10-11T08:46:20.244Z,102822.50
2022-10-11T08:51:16.663Z,102829.31
2022-10-11T08:56:15.924Z,102829.25
2022-10-11T09:01:09.828Z,102831.34
2022-10-11T09:06:10.066Z,102835.75
2022-10-11T09:11:02.451Z,102841.16
2022-10-11T09:15:57.068Z,102834.44
2022-10-11T09:21:16.722Z,102829.22
2022-10-11T09:26:09.351Z,102832.63
2022-10-11T09:31:02.909Z,102836.09
2022-10-11T09:35:55.530Z,102844.06
2022-10-11T09:40:54.305Z,102843.34
2022-10-11T09:45:49.217Z,102841.84
2022-10-11T09:50:39.330Z,102842.81
2022-10-11T09:55:50.862Z,102835.00
2022-10-11T10:00:43.019Z,102834.13
2022-10-11T10:05:38.744Z,102836.63
2022-10-11T10:10:31.747Z,102837.19
2022-10-11T10:15:24.602Z,102836.88
2022-10-11T10:20:22.884Z,102833.91
2022-10-11T10:25:25.025Z,102826.44
2022-10-11T10:30:18.247Z,102824.94
2022-10-11T10:35:12.064Z,102826.03
2022-10-11T10:40:05.563Z,102817.59
2022-10-11T10:44:59.454Z,102816.03
2022-10-11T10:49:55.394Z,102817.91
2022-10-11T10:54:50.660Z,102811.81
2022-10-11T10:59:50.387Z,102811.81
2022-10-11T11:04:40.612Z,102807.34
2022-10-11T11:09:37.164Z,102808.03
2022-10-11T11:14:33.473Z,102801.06
2022-10-11T11:19:35.867Z,102803.63
2022-10-11T11:24:36.372Z,102810.03
2022-10-11T11:29:36.547Z,102802.50
2022-10-11T11:34:28.652Z,102808.19
2022-10-11T11:39:23.736Z,102804.41
2022-10-11T11:44:15.116Z,102796.31
2022-10-11T11:49:12.144Z,102788.28
2022-10-11T11:54:09.442Z,102782.91
2022-10-11T11:59:06.948Z,102787.03
2022-10-11T12:03:57.978Z,102780.78
2022-10-11T12:08:49.036Z,102783.38
2022-10-11T12:13:39.779Z,102772.63
2022-10-11T12:18:39.254Z,102762.13
2022-10-11T12:23:42.618Z,102765.31
2022-10-11T12:28:50.339Z,102763.97
2022-10-11T12:33:55.688Z,102755.47
2022-10-11T12:38:47.291Z,102749.28
2022-10-11T12:43:39.061Z,102749.09
2022-10-11T12:48:41.056Z,102748.97
2022-10-11T12:54:14.361Z,102741.06
2022-10-11T12:59:04.447Z,102743.50
2022-10-11T13:04:00.568Z,102751.19
2022-10-11T13:08:56.558Z,102744.44
2022-10-11T13:13:51.165Z,102736.69
2022-10-11T13:18:44.767Z,102741.03
2022-10-11T13:23:38.160Z,102730.56
2022-10-11T13:28:35.585Z,102730.53
2022-10-11T13:33:32.105Z,102728.69
2022-10-11T13:38:25.732Z,102726.81
2022-10-11T13:43:15.835Z,102718.97
2022-10-11T13:48:16.359Z,102718.88
2022-10-11T13:53:07.223Z,102723.16
2022-10-11T13:57:57.698Z,102714.38
2022-10-11T14:02:49.709Z,102719.56
2022-10-11T14:07:41.937Z,102721.25
2022-10-11T14:12:33.510Z,102712.50
2022-10-11T14:17:26.160Z,102709.00
2022-10-11T14:22:16.946Z,102704.63
2022-10-11T14:27:20.466Z,102703.78
2022-10-11T14:32:11.246Z,102705.59
2022-10-11T14:37:00.816Z,102694.22
2022-10-11T14:41:50.242Z,102699.47
2022-10-11T14:46:42.809Z,102694.28
2022-10-11T14:51:35.216Z,102697.69
2022-10-11T14:56:24.733Z,102697.69
2022-10-11T15:01:17.004Z,102688.06
2022-10-11T15:06:09.843Z,102690.63
2022-10-11T15:10:59.219Z,102688.84
2022-10-11T15:15:48.580Z,102685.41
2022-10-11T15:20:39.522Z,102681.16
2022-10-11T15:25:32.376Z,102677.72
2022-10-11T15:30:23.497Z,102675.09
2022-10-11T15:35:12.986Z,102671.53
2022-10-11T15:40:04.850Z,102672.31
2022-10-11T15:44:56.989Z,102666.94
2022-10-11T15:49:46.726Z,102666.81
2022-10-11T15:54:36.548Z,102654.47
2022-10-11T15:59:26.197Z,102658.72
2022-10-11T16:04:18.205Z,102663.88
2022-10-11T16:09:08.093Z,102661.16
2022-10-11T16:13:57.595Z,102655.91
2022-10-11T16:18:47.074Z,102656.69
2022-10-11T16:23:39.207Z,102655.75
2022-10-11T16:28:29.875Z,102660.03
2022-10-11T16:33:19.258Z,102663.38
2022-10-11T16:38:08.878Z,102667.66
2022-10-11T16:43:07.930Z,102666.72
2022-10-11T16:47:57.577Z,102669.22
2022-10-11T16:52:47.088Z,102668.25
2022-10-11T16:57:37.826Z,102678.56
2022-10-11T17:02:32.619Z,102674.97
2022-10-11T17:07:24.947Z,102666.13
2022-10-11T17:12:15.877Z,102668.56
2022-10-11T17:17:05.988Z,102676.22
2022-10-11T17:21:58.126Z,102667.34
2022-10-11T17:26:47.570Z,102670.66
2022-10-11T17:31:38.577Z,102670.56
2022-10-11T17:36:34.691Z,102672.19
2022-10-11T17:41:32.231Z,102666.06
2022-10-11T17:46:22.609Z,102670.19
2022-10-11T17:51:12.697Z,102671.81
2022-10-11T17:56:06.380Z,102670.88
2022-10-11T18:00:58.407Z,102665.59
2022-10-11T18:05:47.841Z,102662.00
2022-10-11T18:10:38.297Z,102671.38
2022-10-11T18:15:28.083Z,102668.59
2022-10-11T18:20:20.230Z,102662.41
2022-10-11T18:25:09.956Z,102670.78
2022-10-11T18:29:59.395Z,102670.66
2022-10-11T18:34:48.772Z,102667.97
2022-10-11T18:39:40.757Z,102676.50
2022-10-11T18:44:30.468Z,102672.00
2022-10-11T18:49:20.028Z,102671.69
2022-10-11T18:54:10.132Z,102670.69
2022-10-11T18:59:02.217Z,102662.78
2022-10-11T19:03:53.152Z,102655.59
2022-10-11T19:08:42.563Z,102653.69
2022-10-11T19:13:32.347Z,102653.47
2022-10-11T19:18:25.590Z,102648.84
2022-10-11T19:23:15.061Z,102643.34
2022-10-11T19:28:04.969Z,102649.97
2022-10-11T19:32:54.436Z,102651.41
2022-10-11T19:37:46.466Z,102652.81
2022-10-11T19:42:36.967Z,102656.88
2022-10-11T19:47:29.074Z,102648.84
2022-10-11T19:52:20.677Z,102654.56
2022-10-11T19:57:16.133Z,102660.28
2022-10-11T20:02:05.493Z,102654.00
2022-10-11T20:06:54.881Z,102656.28
2022-10-11T20:11:44.292Z,102658.84
2022-10-11T20:16:38.317Z,102659.53
2022-10-11T20:21:29.620Z,102656.66
2022-10-11T20:26:21.080Z,102659.06
2022-10-11T20:31:14.159Z,102664.13
2022-10-11T20:36:07.090Z,102662.25
2022-10-11T20:40:56.499Z,102661.28
2022-10-11T20:45:47.918Z,102649.09
2022-10-11T20:50:37.402Z,102653.22
2022-10-11T20:55:29.415Z,102655.69
2022-10-11T21:00:19.009Z,102655.53
2022-10-11T21:05:11.945Z,102665.72
2022-10-11T21:10:01.391Z,102659.50
2022-10-11T21:14:53.415Z,102661.94
2022-10-11T21:19:42.781Z,102660.03
2022-10-11T21:24:32.396Z,102652.00
2022-10-11T21:29:22.112Z,102662.13
2022-10-11T21:34:14.131Z,102660.22
2022-10-11T21:39:03.772Z,102658.16
2022-10-11T21:43:53.181Z,102652.78
2022-10-11T21:48:42.800Z,102656.06
2022-10-11T21:53:35.186Z,102643.78
2022-10-11T21:58:24.576Z,102651.34
2022-10-11T22:03:14.055Z,102654.72
2022-10-11T22:08:03.587Z,102643.47
2022-10-11T22:12:55.949Z,102644.22
2022-10-11T22:17:46.669Z,102657.06
2022-10-11T22:22:36.431Z,102646.56
2022-10-11T22:27:26.096Z,102654.97
2022-10-11T22:32:18.124Z,102649.72
2022-10-11T22:37:07.550Z,102645.25
2022-10-11T22:41:57.143Z,102637.38
2022-10-11T22:46:47.142Z,102640.69
2022-10-11T22:51:39.227Z,102630.97
2022-10-11T22:56:28.698Z,102624.84
2022-10-11T23:01:18.724Z,102623.97
2022-10-11T23:06:09.314Z,102618.69
2022-10-11T23:11:04.645Z,102627.28
2022-10-11T23:15:54.150Z,102615.25
2022-10-11T23:20:43.534Z,102615.94
2022-10-11T23:25:32.920Z,102618.47
2022-10-11T23:30:25.014Z,102610.59
2022-10-11T23:35:14.416Z,102618.28
2022-10-11T23:40:06.575Z,102613.09
2022-10-11T23:44:55.933Z,102605.22
2022-10-11T23:49:48.015Z,102609.41
2022-10-11T23:54:37.391Z,102611.84
2022-10-11T23:59:26.803Z,102597.13
